AirNav   Pilot Hours Calculator
 
 1192 users online  

KSPH Springhill Airport
Springhill, Louisiana, USA

GOING TO SPRINGHILL?


FAA INFORMATION EFFECTIVE 15 JULY 2021

Location

FAA Identifier: SPH
Lat/Long: 32-59-01.4000N 093-24-33.0000W
32-59.023333N 093-24.550000W
32.9837222,-93.4091667
(estimated)
Elevation: 217.6 ft. / 66.3 m (surveyed)
Variation: 02E (2010)
From city: 3 miles E of SPRINGHILL, LA
Time zone: UTC -5 (UTC -6 during Standard Time)
Zip code: 71075

Airport Operations

Airport use: Open to the public
Activation date: 01/1966
Control tower: no
ARTCC: FORT WORTH CENTER
FSS: DE RIDDER FLIGHT SERVICE STATION
NOTAMs facility: DRI (NOTAM-D service available)
Attendance: UNATNDD
Wind indicator: lighted
Segmented circle: no
Lights: MIRL RWY 18/36 PRESET LOW INTST DUSK-DAWN; TO INCR INTST ACTVT - CTAF.
Beacon: white-green (lighted land airport)
AIRPORT BEACON LOCATED .52 MILES FROM THE APPROACH END RWY 18 RIGHT OF CENTERLINE. Operates sunset to sunrise.

Airport Communications

CTAF/UNICOM: 122.8
SHREVEPORT APPROACH: 123.75
SHREVEPORT DEPARTURE: 123.75
WX AWOS-2 at AGO (18 nm NE): 118.05 (870-901-3532)

Nearby radio navigation aids

VOR radial/distance  VOR name  Freq  Var
EICr051/23.9BELCHER VORTAC117.4007E
EMGr008/36.2ELM GROVE VORTAC111.2007E
ELDr237/37.2EL DORADO VOR/DME115.5007E

 
NDB name  Hdg/Dist  Freq  Var  ID
ATLANTA096/39.934704EATA .- - .-

Airport Services

Parking: tiedowns
Airframe service: NONE
Powerplant service: NONE
Bottled oxygen: NONE
Bulk oxygen: NONE

Runway Information

Runway 18/36

Dimensions: 4202 x 75 ft. / 1281 x 23 m
Surface: asphalt, in good condition
Runway edge lights: medium intensity
RUNWAY 18  RUNWAY 36
Latitude: 32-59.369873N32-58.677065N
Longitude: 093-24.551142W093-24.549622W
Elevation: 205.1 ft.217.5 ft.
Traffic pattern: leftleft
Runway heading: 178 magnetic, 180 true358 magnetic, 360 true
Markings: nonprecision, in good conditionnonprecision, in good condition
Visual slope indicator: 2-light PAPI on left (3.00 degrees glide path)
PAPI UNUSBL BYD 9 DEGS RIGHT OF CNTRLN.
2-light PAPI on left (3.00 degrees glide path)
Runway end identifier lights: nono
Touchdown point: yes, no lightsyes, no lights
Obstructions: 95 ft. trees, 2158 ft. from runway, 20:1 slope to clear90 ft. trees, 2543 ft. from runway, 292 ft. right of centerline, 26:1 slope to clear

Airport Ownership and Management from official FAA records

Ownership: Publicly-owned
Owner: CITY OF SPRINGHILL
MAYOR'S OFFICE, P.O. BOX 398
SPRINGHILL, LA 71075
Phone 318-539-5681
Manager: STEVEN BURDEAUX
P.O BOX 398
SPRINGHILL, LA 71075
Phone 318-453-7727

Airport Operational Statistics

Aircraft based on the field: 5
Single engine airplanes: 5
    
Aircraft operations: avg 120/week *
60% local general aviation
40% transient general aviation
* for 12-month period ending 18 November 2020

Additional Remarks

FOR CD CTC FORT WORTH ARTCC AT 817-858-7584.
ULTRALIGHT ACTIVITY ON AND IN VICINITY OF AIRPORT

Instrument Procedures

NOTE: All procedures below are presented as PDF files. If you need a reader for these files, you should download the free Adobe Reader.

NOT FOR NAVIGATION. Please procure official charts for flight.
FAA instrument procedures published for use from 15 July 2021 at 0901Z to 12 August 2021 at 0900z.

 
IAPs - Instrument Approach Procedures
RNAV (GPS) RWY 18   download (197KB)
RNAV (GPS) RWY 36   download (201KB)
NOTE: Special Take-Off Minimums/Departure Procedures apply   download (201KB)

Other nearby airports with instrument procedures:

KAGO - Ralph C Weiser Field Airport (18 nm NE)
KMNE - Minden Airport (21 nm S)
3F4 - Vivian Airport (31 nm W)
KDTN - Shreveport Downtown Airport (31 nm SW)
KBAD - Barksdale Air Force Base (32 nm SW)
 
Loc | Ops | Rwys | IFR | FBO | Links
Com | Nav | Svcs | Stats | Notes
Area around KSPH (Springhill Airport)
 
Road maps at: MapQuest Bing Google
 
Aerial photo
WARNING: Photo may not be current or correct
Aerial photo of KSPH (Springhill Airport)
Photo by Dwayne Wilson
Photo taken 27-Sep-2014
looking northwest.

Do you have a better or more recent aerial photo of Springhill Airport that you would like to share? If so, please send us your photo.

 
Sectional chart

 
Airport distance calculator
Flying to Springhill Airport? Find the distance to fly.

From to KSPH

Sunrise and sunset
Times for 29-Jul-2021
 Local
(UTC-5)
 Zulu
(UTC)
Morning civil twilight05:5910:59
Sunrise06:2611:26
Sunset20:1401:14
Evening civil twilight20:4101:41

Current date and time
Zulu (UTC)  29-Jul-2021 13:24:50
Local (UTC-5)  29-Jul-2021 08:24:50
 
METAR
KMNE 
21nm S 
291255Z AUTO 00000KT 10SM CLR 26/25 A3008 RMK AO2 T02550249
KDTN 
31nm SW 
291253Z 04003KT 10SM CLR 28/25 A3007 RMK AO2 SLP178 T02780250
KBAD 
32nm SW 
291256Z AUTO 00000KT 10SM CLR 26/24 A3006 RMK AO2 SLP180 T02630243
KELD 
33nm NE 
291253Z AUTO 36005KT 7SM CLR 27/24 A3008 RMK AO2 SLP183 T02670244
KSHV 
39nm SW 
291256Z 00000KT 10SM FEW280 28/24 A3006 RMK AO2 SLP174 T02780239
KTXK 
40nm NW 
291253Z 00000KT 10SM CLR 28/24 A3009 RMK AO2 SLP181 T02780244
TAF
KBAD 
32nm SW 
290130Z 2820/3002 VRB05KT 9999 VCTS SCT040CB SCT250 QNH2992INS TEMPO 2820/2823 VRB15G25KT 4800 TSRA BKN040CB BKN250 BECMG 2822/2823 VRB02KT 9999 NSW FEW045 SCT250 QNH2992INS WND 10005KT AFT 2916 TX35/2821Z TN24/2912Z LAST NO AMDS AFT 2902 NEXT 2912
KELD 
33nm NE 
291121Z 2912/3012 00000KT 6SM BR SKC FM291400 09005KT P6SM FEW025 SCT040 SCT250 FM300000 00000KT P6SM SKC FM300600 00000KT 6SM BR SKC
KSHV 
39nm SW 
291121Z 2912/3012 00000KT P6SM SKC FM291400 14006KT P6SM FEW020 SCT040 SCT250 FM300000 16004KT P6SM BKN250 FM300600 00000KT P6SM BKN250
NOTAMs
Click for the latest NOTAMs
NOTAMs are issued by the DoD/FAA and will open in a separate window not controlled by AirNav.

 

 
 

Would you like to see your business listed on this page?

 If your business provides an interesting product or service to pilots, flight crews, aircraft, or users of the Springhill Airport, you should consider listing it here.  To start the listing process, click on the button below
 
Add a business
 

Other Pages about Springhill Airport

Update a link
 
Copyright © AirNav, LLC. All rights reserved. Privacy Policy  Contact